sensor_id;sensor_type;location;lat;lon;timestamp;P1;durP1;ratioP1;P2;durP2;ratioP2
36243;SDS011;22284;49.956;19.816;2023-02-28T00:14:38;29.40;;;12.50;;
36243;SDS011;22284;49.956;19.816;2023-02-28T00:21:51;29.10;;;12.40;;
36243;SDS011;22284;49.956;19.816;2023-02-28T00:50:49;28.60;;;13.40;;
36243;SDS011;22284;49.956;19.816;2023-02-28T01:29:38;21.40;;;9.40;;
36243;SDS011;22284;49.956;19.816;2023-02-28T02:37:31;20.60;;;9.30;;
36243;SDS011;22284;49.956;19.816;2023-02-28T02:46:21;22.70;;;9.20;;
36243;SDS011;22284;49.956;19.816;2023-02-28T02:50:05;22.00;;;9.50;;
36243;SDS011;22284;49.956;19.816;2023-02-28T02:53:09;23.10;;;10.00;;
36243;SDS011;22284;49.956;19.816;2023-02-28T02:56:23;24.10;;;11.20;;
36243;SDS011;22284;49.956;19.816;2023-02-28T04:30:53;41.10;;;15.60;;
36243;SDS011;22284;49.956;19.816;2023-02-28T04:42:32;42.50;;;15.60;;
36243;SDS011;22284;49.956;19.816;2023-02-28T04:45:40;30.30;;;13.50;;
36243;SDS011;22284;49.956;19.816;2023-02-28T04:58:16;28.10;;;12.50;;
36243;SDS011;22284;49.956;19.816;2023-02-28T05:13:59;30.40;;;13.30;;
36243;SDS011;22284;49.956;19.816;2023-02-28T06:00:32;53.50;;;21.00;;
36243;SDS011;22284;49.956;19.816;2023-02-28T06:03:54;51.30;;;19.40;;
36243;SDS011;22284;49.956;19.816;2023-02-28T06:59:27;37.50;;;17.70;;
36243;SDS011;22284;49.956;19.816;2023-02-28T07:11:52;42.40;;;21.30;;
36243;SDS011;22284;49.956;19.816;2023-02-28T07:15:35;40.70;;;22.00;;
36243;SDS011;22284;49.956;19.816;2023-02-28T07:41:35;43.70;;;19.90;;
36243;SDS011;22284;49.956;19.816;2023-02-28T07:45:00;38.80;;;18.40;;
36243;SDS011;22284;49.956;19.816;2023-02-28T08:57:59;15.80;;;6.70;;
36243;SDS011;22284;49.956;19.816;2023-02-28T09:02:20;14.00;;;6.10;;
36243;SDS011;22284;49.956;19.816;2023-02-28T10:00:24;11.60;;;6.20;;
36243;SDS011;22284;49.956;19.816;2023-02-28T10:36:08;13.60;;;6.90;;
36243;SDS011;22284;49.956;19.816;2023-02-28T10:39:41;16.90;;;8.10;;
36243;SDS011;22284;49.956;19.816;2023-02-28T10:50:42;16.30;;;7.40;;
36243;SDS011;22284;49.956;19.816;2023-02-28T10:58:02;18.00;;;8.30;;
36243;SDS011;22284;49.956;19.816;2023-02-28T11:05:30;15.00;;;7.80;;
36243;SDS011;22284;49.956;19.816;2023-02-28T11:36:57;17.10;;;8.00;;
36243;SDS011;22284;49.956;19.816;2023-02-28T11:53:33;21.70;;;8.60;;
36243;SDS011;22284;49.956;19.816;2023-02-28T11:57:01;16.20;;;8.30;;
36243;SDS011;22284;49.956;19.816;2023-02-28T12:00:40;18.80;;;8.50;;
36243;SDS011;22284;49.956;19.816;2023-02-28T12:07:39;15.40;;;7.60;;
36243;SDS011;22284;49.956;19.816;2023-02-28T12:11:15;15.90;;;8.40;;
36243;SDS011;22284;49.956;19.816;2023-02-28T12:30:57;17.20;;;8.40;;
36243;SDS011;22284;49.956;19.816;2023-02-28T12:39:17;16.10;;;8.10;;
36243;SDS011;22284;49.956;19.816;2023-02-28T12:49:49;16.20;;;8.30;;
36243;SDS011;22284;49.956;19.816;2023-02-28T12:53:03;16.20;;;7.80;;
36243;SDS011;22284;49.956;19.816;2023-02-28T12:59:40;16.00;;;8.40;;
36243;SDS011;22284;49.956;19.816;2023-02-28T13:03:12;18.10;;;8.00;;
36243;SDS011;22284;49.956;19.816;2023-02-28T13:10:41;25.40;;;10.70;;
36243;SDS011;22284;49.956;19.816;2023-02-28T13:18:03;18.40;;;8.60;;
36243;SDS011;22284;49.956;19.816;2023-02-28T13:21:28;17.00;;;8.90;;
36243;SDS011;22284;49.956;19.816;2023-02-28T13:25:49;16.70;;;8.00;;
36243;SDS011;22284;49.956;19.816;2023-02-28T14:01:06;16.20;;;7.90;;
36243;SDS011;22284;49.956;19.816;2023-02-28T14:09:41;16.90;;;9.00;;
36243;SDS011;22284;49.956;19.816;2023-02-28T14:44:11;16.50;;;8.20;;
36243;SDS011;22284;49.956;19.816;2023-02-28T14:47:15;15.70;;;8.00;;
36243;SDS011;22284;49.956;19.816;2023-02-28T14:50:29;13.90;;;7.10;;
36243;SDS011;22284;49.956;19.816;2023-02-28T14:53:35;16.10;;;8.10;;
36243;SDS011;22284;49.956;19.816;2023-02-28T14:56:38;18.40;;;8.20;;
36243;SDS011;22284;49.956;19.816;2023-02-28T15:02:45;20.60;;;9.30;;
36243;SDS011;22284;49.956;19.816;2023-02-28T15:05:58;21.90;;;9.70;;
36243;SDS011;22284;49.956;19.816;2023-02-28T15:09:08;18.00;;;8.70;;
36243;SDS011;22284;49.956;19.816;2023-02-28T15:12:17;16.90;;;8.50;;
36243;SDS011;22284;49.956;19.816;2023-02-28T15:26:45;22.80;;;9.90;;
36243;SDS011;22284;49.956;19.816;2023-02-28T15:46:12;22.00;;;11.40;;
36243;SDS011;22284;49.956;19.816;2023-02-28T15:49:26;23.20;;;10.20;;
36243;SDS011;22284;49.956;19.816;2023-02-28T15:52:38;23.90;;;10.50;;
36243;SDS011;22284;49.956;19.816;2023-02-28T15:56:06;20.40;;;9.40;;
36243;SDS011;22284;49.956;19.816;2023-02-28T15:59:15;27.20;;;11.20;;
36243;SDS011;22284;49.956;19.816;2023-02-28T16:02:44;26.70;;;12.30;;
36243;SDS011;22284;49.956;19.816;2023-02-28T16:09:23;26.40;;;13.40;;
36243;SDS011;22284;49.956;19.816;2023-02-28T16:12:29;30.10;;;14.20;;
36243;SDS011;22284;49.956;19.816;2023-02-28T16:43:15;21.80;;;10.90;;
36243;SDS011;22284;49.956;19.816;2023-02-28T16:51:10;25.90;;;13.70;;
36243;SDS011;22284;49.956;19.816;2023-02-28T16:58:20;22.70;;;10.90;;
36243;SDS011;22284;49.956;19.816;2023-02-28T17:01:25;30.70;;;14.30;;
36243;SDS011;22284;49.956;19.816;2023-02-28T17:04:30;25.50;;;11.00;;
36243;SDS011;22284;49.956;19.816;2023-02-28T17:10:47;31.90;;;15.80;;
36243;SDS011;22284;49.956;19.816;2023-02-28T17:13:48;30.90;;;15.50;;
36243;SDS011;22284;49.956;19.816;2023-02-28T17:17:04;26.10;;;12.30;;
36243;SDS011;22284;49.956;19.816;2023-02-28T17:20:19;27.70;;;13.70;;
36243;SDS011;22284;49.956;19.816;2023-02-28T17:23:27;31.50;;;13.40;;
36243;SDS011;22284;49.956;19.816;2023-02-28T17:26:36;28.70;;;13.40;;
36243;SDS011;22284;49.956;19.816;2023-02-28T17:29:49;37.80;;;22.10;;
36243;SDS011;22284;49.956;19.816;2023-02-28T17:33:16;30.10;;;16.40;;
36243;SDS011;22284;49.956;19.816;2023-02-28T17:36:22;30.40;;;14.60;;
36243;SDS011;22284;49.956;19.816;2023-02-28T17:39:31;37.20;;;18.30;;
36243;SDS011;22284;49.956;19.816;2023-02-28T17:42:43;33.50;;;17.10;;
36243;SDS011;22284;49.956;19.816;2023-02-28T17:46:17;34.10;;;19.00;;
36243;SDS011;22284;49.956;19.816;2023-02-28T17:49:30;32.70;;;16.70;;
36243;SDS011;22284;49.956;19.816;2023-02-28T17:52:45;31.30;;;15.90;;
36243;SDS011;22284;49.956;19.816;2023-02-28T17:55:47;32.30;;;15.80;;
36243;SDS011;22284;49.956;19.816;2023-02-28T18:10:29;25.50;;;11.90;;
36243;SDS011;22284;49.956;19.816;2023-02-28T18:13:43;34.90;;;17.00;;
36243;SDS011;22284;49.956;19.816;2023-02-28T18:17:09;42.90;;;21.50;;
36243;SDS011;22284;49.956;19.816;2023-02-28T18:20:23;38.00;;;18.50;;
36243;SDS011;22284;49.956;19.816;2023-02-28T18:23:27;36.40;;;20.10;;
36243;SDS011;22284;49.956;19.816;2023-02-28T18:27:00;49.90;;;23.20;;
36243;SDS011;22284;49.956;19.816;2023-02-28T18:30:02;53.10;;;26.10;;
36243;SDS011;22284;49.956;19.816;2023-02-28T18:33:05;63.10;;;27.60;;
36243;SDS011;22284;49.956;19.816;2023-02-28T18:36:19;40.00;;;18.60;;
36243;SDS011;22284;49.956;19.816;2023-02-28T18:42:56;48.00;;;23.40;;
36243;SDS011;22284;49.956;19.816;2023-02-28T18:53:15;39.90;;;21.10;;
36243;SDS011;22284;49.956;19.816;2023-02-28T18:56:18;42.80;;;20.20;;
36243;SDS011;22284;49.956;19.816;2023-02-28T18:59:22;40.00;;;20.70;;
36243;SDS011;22284;49.956;19.816;2023-02-28T19:02:33;55.70;;;28.80;;
36243;SDS011;22284;49.956;19.816;2023-02-28T19:08:51;61.10;;;32.80;;
36243;SDS011;22284;49.956;19.816;2023-02-28T19:11:54;49.70;;;26.80;;
36243;SDS011;22284;49.956;19.816;2023-02-28T19:14:56;48.10;;;26.90;;
36243;SDS011;22284;49.956;19.816;2023-02-28T19:17:58;55.50;;;28.10;;
36243;SDS011;22284;49.956;19.816;2023-02-28T19:21:14;54.30;;;28.60;;
36243;SDS011;22284;49.956;19.816;2023-02-28T19:24:20;51.90;;;27.30;;
36243;SDS011;22284;49.956;19.816;2023-02-28T19:27:23;47.00;;;24.80;;
36243;SDS011;22284;49.956;19.816;2023-02-28T19:30:45;50.20;;;24.40;;
36243;SDS011;22284;49.956;19.816;2023-02-28T19:33:59;45.40;;;22.50;;
36243;SDS011;22284;49.956;19.816;2023-02-28T19:37:12;45.20;;;21.60;;
36243;SDS011;22284;49.956;19.816;2023-02-28T19:40:14;44.30;;;21.30;;
36243;SDS011;22284;49.956;19.816;2023-02-28T19:43:19;44.50;;;22.50;;
36243;SDS011;22284;49.956;19.816;2023-02-28T19:46:31;44.40;;;21.90;;
36243;SDS011;22284;49.956;19.816;2023-02-28T19:49:36;49.70;;;22.60;;
36243;SDS011;22284;49.956;19.816;2023-02-28T19:52:46;51.30;;;25.60;;
36243;SDS011;22284;49.956;19.816;2023-02-28T19:55:49;61.40;;;28.10;;
36243;SDS011;22284;49.956;19.816;2023-02-28T20:02:08;66.20;;;32.70;;
36243;SDS011;22284;49.956;19.816;2023-02-28T20:05:17;70.90;;;38.50;;
36243;SDS011;22284;49.956;19.816;2023-02-28T20:08:31;80.90;;;41.10;;
36243;SDS011;22284;49.956;19.816;2023-02-28T20:11:36;81.40;;;42.00;;
36243;SDS011;22284;49.956;19.816;2023-02-28T20:15:05;96.20;;;47.20;;
36243;SDS011;22284;49.956;19.816;2023-02-28T20:18:11;94.60;;;49.60;;
36243;SDS011;22284;49.956;19.816;2023-02-28T20:22:04;107.00;;;51.90;;
36243;SDS011;22284;49.956;19.816;2023-02-28T20:28:40;106.10;;;53.90;;
36243;SDS011;22284;49.956;19.816;2023-02-28T20:31:45;103.50;;;53.40;;
36243;SDS011;22284;49.956;19.816;2023-02-28T20:38:21;104.50;;;52.40;;
36243;SDS011;22284;49.956;19.816;2023-02-28T20:41:26;104.70;;;54.60;;
36243;SDS011;22284;49.956;19.816;2023-02-28T20:44:39;100.10;;;52.10;;
36243;SDS011;22284;49.956;19.816;2023-02-28T20:47:41;110.50;;;54.10;;
36243;SDS011;22284;49.956;19.816;2023-02-28T20:50:54;231.70;;;90.40;;
36243;SDS011;22284;49.956;19.816;2023-02-28T20:54:00;221.50;;;83.30;;
36243;SDS011;22284;49.956;19.816;2023-02-28T20:57:02;196.70;;;78.00;;
36243;SDS011;22284;49.956;19.816;2023-02-28T21:00:04;156.30;;;61.20;;
36243;SDS011;22284;49.956;19.816;2023-02-28T21:03:11;146.10;;;63.60;;
36243;SDS011;22284;49.956;19.816;2023-02-28T21:06:25;143.50;;;65.20;;
36243;SDS011;22284;49.956;19.816;2023-02-28T21:09:31;155.80;;;63.00;;
36243;SDS011;22284;49.956;19.816;2023-02-28T21:12:48;123.50;;;53.70;;
36243;SDS011;22284;49.956;19.816;2023-02-28T21:15:51;116.90;;;51.90;;
36243;SDS011;22284;49.956;19.816;2023-02-28T21:18:53;114.60;;;53.80;;
36243;SDS011;22284;49.956;19.816;2023-02-28T21:21:56;99.40;;;45.90;;
36243;SDS011;22284;49.956;19.816;2023-02-28T21:25:12;83.20;;;38.60;;
36243;SDS011;22284;49.956;19.816;2023-02-28T21:28:17;72.60;;;35.10;;
36243;SDS011;22284;49.956;19.816;2023-02-28T21:31:23;83.50;;;40.80;;
36243;SDS011;22284;49.956;19.816;2023-02-28T21:41:30;83.60;;;42.10;;
36243;SDS011;22284;49.956;19.816;2023-02-28T21:44:52;88.60;;;42.10;;
36243;SDS011;22284;49.956;19.816;2023-02-28T21:48:08;89.40;;;45.70;;
36243;SDS011;22284;49.956;19.816;2023-02-28T21:51:16;89.70;;;44.50;;
36243;SDS011;22284;49.956;19.816;2023-02-28T21:54:39;92.20;;;44.20;;
36243;SDS011;22284;49.956;19.816;2023-02-28T22:01:37;96.40;;;44.80;;
36243;SDS011;22284;49.956;19.816;2023-02-28T22:05:28;98.10;;;44.60;;
36243;SDS011;22284;49.956;19.816;2023-02-28T22:09:10;111.00;;;46.80;;
36243;SDS011;22284;49.956;19.816;2023-02-28T22:12:32;104.00;;;47.00;;
36243;SDS011;22284;49.956;19.816;2023-02-28T22:15:44;76.70;;;36.80;;
36243;SDS011;22284;49.956;19.816;2023-02-28T22:18:53;77.90;;;36.40;;
36243;SDS011;22284;49.956;19.816;2023-02-28T22:21:55;77.30;;;38.30;;
36243;SDS011;22284;49.956;19.816;2023-02-28T22:39:00;82.10;;;39.80;;
36243;SDS011;22284;49.956;19.816;2023-02-28T22:42:32;82.90;;;39.80;;
36243;SDS011;22284;49.956;19.816;2023-02-28T22:45:36;72.30;;;37.30;;
36243;SDS011;22284;49.956;19.816;2023-02-28T22:48:41;83.20;;;40.40;;
36243;SDS011;22284;49.956;19.816;2023-02-28T22:51:57;77.50;;;37.00;;
36243;SDS011;22284;49.956;19.816;2023-02-28T22:58:46;83.60;;;38.40;;
36243;SDS011;22284;49.956;19.816;2023-02-28T23:02:21;82.40;;;40.80;;
36243;SDS011;22284;49.956;19.816;2023-02-28T23:05:22;113.60;;;53.90;;
36243;SDS011;22284;49.956;19.816;2023-02-28T23:08:27;120.20;;;56.80;;
36243;SDS011;22284;49.956;19.816;2023-02-28T23:11:31;106.50;;;50.90;;
36243;SDS011;22284;49.956;19.816;2023-02-28T23:14:37;100.50;;;49.70;;
36243;SDS011;22284;49.956;19.816;2023-02-28T23:17:45;129.30;;;59.40;;
36243;SDS011;22284;49.956;19.816;2023-02-28T23:20:50;134.40;;;62.60;;
36243;SDS011;22284;49.956;19.816;2023-02-28T23:24:09;118.80;;;54.90;;
36243;SDS011;22284;49.956;19.816;2023-02-28T23:30:39;83.90;;;40.90;;
36243;SDS011;22284;49.956;19.816;2023-02-28T23:34:04;81.90;;;38.70;;
36243;SDS011;22284;49.956;19.816;2023-02-28T23:40:27;110.30;;;51.20;;
36243;SDS011;22284;49.956;19.816;2023-02-28T23:43:29;101.00;;;50.00;;
36243;SDS011;22284;49.956;19.816;2023-02-28T23:46:31;100.50;;;47.60;;
36243;SDS011;22284;49.956;19.816;2023-02-28T23:49:32;103.90;;;51.70;;
36243;SDS011;22284;49.956;19.816;2023-02-28T23:52:47;106.80;;;50.60;;
36243;SDS011;22284;49.956;19.816;2023-02-28T23:59:30;106.90;;;52.40;;
